createdAt,value
2014-08-07T06:14:39.715Z,101293
2014-08-07T06:22:40.308Z,101293
2014-08-07T06:30:40.918Z,101316
2014-08-07T06:37:41.478Z,101313
2014-08-07T06:44:42.022Z,101334
2014-08-07T06:52:42.616Z,101325
2014-08-07T06:59:43.177Z,101339
2014-08-07T07:08:43.817Z,101339
2014-08-07T07:16:44.427Z,101336
2014-08-07T07:25:45.070Z,101333
2014-08-07T07:31:45.565Z,101330
2014-08-07T07:40:46.225Z,101337
2014-08-07T07:47:46.784Z,101331
2014-08-07T07:56:47.442Z,101337
2014-08-07T08:04:48.034Z,101349
2014-08-07T08:13:48.709Z,101359
2014-08-07T08:21:49.302Z,101349
2014-08-07T08:30:49.960Z,101351
2014-08-07T08:39:50.617Z,101356
2014-08-07T08:47:51.228Z,101356
2014-08-07T08:54:51.788Z,101362
2014-08-07T09:04:52.495Z,101362
2014-08-07T09:12:53.087Z,101368
2014-08-07T09:19:53.648Z,101377
2014-08-07T09:26:54.192Z,101380
2014-08-07T09:34:54.803Z,101383
2014-08-07T09:42:55.411Z,101398
2014-08-07T09:50:56.021Z,101392
2014-08-07T09:57:56.564Z,101374
2014-08-07T10:06:57.223Z,101383
2014-08-07T10:15:57.880Z,101377
2014-08-07T10:24:58.523Z,101386
2014-08-07T10:32:59.132Z,101395
2014-08-07T10:40:59.742Z,101395
2014-08-07T10:49:00.336Z,101395
2014-08-07T10:58:00.992Z,101392
2014-08-07T11:05:01.554Z,101395
2014-08-07T11:12:02.097Z,101392
2014-08-07T11:19:02.658Z,101386
2014-08-07T11:29:03.365Z,101377
2014-08-07T11:36:03.910Z,101374
2014-08-07T11:45:04.568Z,101371
2014-08-07T11:55:05.305Z,101380
2014-08-07T12:03:05.898Z,101383
2014-08-07T12:12:06.574Z,101368
2014-08-07T12:19:07.118Z,101365
2014-08-07T12:28:07.775Z,101366
2014-08-07T12:35:08.336Z,101357
2014-08-07T12:45:09.041Z,101346
2014-08-07T12:52:09.603Z,101343
2014-08-07T13:01:10.260Z,101337
2014-08-07T13:09:10.869Z,101334
2014-08-07T13:15:11.367Z,101334
2014-08-07T13:22:11.926Z,101340
2014-08-07T13:29:12.471Z,101359
2014-08-07T13:36:13.031Z,101359
2014-08-07T13:45:13.688Z,101365
2014-08-07T13:51:14.276Z,101365
2014-08-07T14:01:15.113Z,101359
2014-08-07T14:11:15.835Z,101356
2014-08-07T14:20:16.497Z,101352
2014-08-07T14:28:17.106Z,101352
2014-08-07T14:38:17.812Z,101363
2014-08-07T14:46:18.421Z,101340
2014-08-07T14:55:19.080Z,101357
2014-08-07T15:03:19.688Z,101352
2014-08-07T15:10:20.233Z,101363
2014-08-07T15:18:20.841Z,101363
2014-08-07T15:24:21.353Z,101363
2014-08-07T15:32:21.947Z,101343
2014-08-07T15:41:22.621Z,101357
2014-08-07T15:50:23.279Z,101334
2014-08-07T15:58:51.217Z,101343
2014-08-07T16:04:51.682Z,101341
2014-08-07T16:13:52.340Z,101347
2014-08-07T16:20:52.885Z,101335
2014-08-07T16:27:53.445Z,101347
2014-08-07T16:34:54.006Z,101369
2014-08-07T16:41:54.565Z,101363
2014-08-07T16:49:55.159Z,101366
2014-08-07T16:59:55.882Z,101372
2014-08-07T17:08:56.540Z,101360
2014-08-07T17:16:57.148Z,101349
2014-08-07T17:24:57.757Z,101372
2014-08-07T17:30:58.254Z,101366
2014-08-07T17:38:58.861Z,101366
2014-08-07T17:45:59.408Z,101372
2014-08-07T17:55:00.081Z,101384
2014-08-07T18:05:00.788Z,101389
2014-08-07T18:14:01.445Z,101390
2014-08-07T18:23:02.104Z,101390
2014-08-07T19:22:10.138Z,101445
2014-08-07T19:28:10.635Z,101442
2014-08-07T19:38:11.357Z,101445
2014-08-07T19:47:12.015Z,101451
2014-08-07T19:54:12.575Z,101446
2014-08-07T20:02:13.183Z,101455
2014-08-07T20:10:13.777Z,101467
2014-08-07T20:18:14.387Z,101461
2014-08-07T20:27:15.061Z,101473
